Cleveland, OH

8:22 AM EST on February 10, 2016 (GMT -0500)
Cleveland East Side | | Change Station
CLOSE
Current Station
Personal Weather Station
Location: Cleveland, OH
Elevation: 0 ft
Nearby Weather Stations

Elev 0 ft 41.51 °N, 81.64 °W | Updated 19 seconds ago

Light Snow
Light Snow
21.6 °F
Feels Like 16 °F
N
3.7
Wind Variable Wind from WSW

Today
High -- | Low -- °F
--% Chance of Precip.
Yesterday
High -- | Low -- °F
Precip. -- in
Pressure 29.78 in
Visibility 5.0 miles
Clouds Scattered Clouds 1800 ft
Mostly Cloudy 2500 ft
Overcast 6000 ft
Windchill 16 °F
Dew Point 18 °F
Humidity 85%
Rainfall 0.00 in
Snow Depth Not available.
7:28 AM 5:53 PM
Waxing Crescent, 5% visible
SPECI KBKL 101319Z 22018KT 5SM -SN SCT018 BKN025 OVC060 M06/M08 A2978 RMK AO2 P0000 T10561083
Pressure 29.78 in
Visibility 5.0 miles
Clouds Scattered Clouds 1800 ft
Mostly Cloudy 2500 ft
Overcast 6000 ft
Windchill 16 °F
Dew Point 18 °F
Humidity 85%
Rainfall 0.00 in
Snow Depth Not available.
7:28 AM 5:53 PM
Waxing Crescent, 5% visible
SPECI KBKL 101319Z 22018KT 5SM -SN SCT018 BKN025 OVC060 M06/M08 A2978 RMK AO2 P0000 T10561083

10-Day Weather Forecast

Almanac

Astronomy

Feb. 10, 2016 Rise Set
Actual Time
Civil Twilight
Nautical Twilight
Astronomical Twilight
Moon
Length of Visible Light
Length of Day
Tomorrow will be .
, % of the Moon is Illuminated

Today's Extremes

State Highs State Lows

Community

WunderPhotos

Upload Photos

1,891,840 photos uploaded!

WunderBlog® & News

Nearby

Air Quality

  Air Quality AQ Index Pollutant
Not available.

Snow Depth

Station Depth Elevation

Earthquake Activity

City Distance Mag. Time & Date
Minimum magnitude displayed is 2.5.

Coastal Water Temperatures

Place Temperature

Stations

Nearby Weather Stations

Station Location Temp. Windchill Dew Point Humidity Wind Precip. Elev Updated Type
                   

Watches & Warnings

There are currently no watches in effect.